Sct Santiago — V7NF7 — position and weather

sailwx.info

Track history (hours):
 
Tides and Currents Weather Stations Pressure Air Temp Water Temp Dewpoint Dewpoint Depression Visibility Wind Speed Wind Dir Waves Ship Positions

Sct Santiago

Last reported at 2014-Nov-23 06:27 UTC. Time now 2014-Nov-24 15:21 UTC.
Position N 40°53' E 028°40'.

Length 294 m; draft 10.9 m.

Type: Cargo ship. MMSI: 538002953.

Date/timePositionNaut miles runAvg speedWind from/ knotsBaromVisibWave heightAir tempDewpointWater temp
2014-Nov-23 06:27N 40°53' E 028°40'15213.7
2014-Nov-22 19:19N 39°40' E 025°45'12119.7
2014-Nov-22 13:09N 37°52' E 024°35'1219.9
2014-Nov-22 12:33N 37°40' E 024°30'1919.6
2014-Nov-22 11:33N 37°25' E 024°15'2019.8
2014-Nov-22 10:33N 37°10' E 023°59'2619.9
2014-Nov-22 09:14N 36°50' E 023°37'1419.8
2014-Nov-22 08:31N 36°39' E 023°27'43719.6
2014-Nov-21 10:13N 36°32' E 014°22'1420.1
2014-Nov-21 09:32N 36°35' E 014°06'2020.2
2014-Nov-21 08:34N 36°40' E 013°42'2020.3
2014-Nov-21 07:34N 36°45' E 013°18'4020.0
2014-Nov-21 05:33N 36°54' E 012°29'19919.3
2014-Nov-20 19:13N 37°17' E 008°21'2219.9
2014-Nov-20 18:08N 37°17' E 007°53'1219.5
2014-Nov-20 17:31N 37°16' E 007°38'6119.4
2014-Nov-20 14:21N 37°17' E 006°21'6620.2
2014-Nov-20 11:05N 37°11' E 004°58'1519.9
2014-Nov-20 10:19N 37°10' E 004°39'2120.2
2014-Nov-20 09:16N 37°09' E 004°13'14820.7
2014-Nov-20 02:08N 36°47' E 001°10'1420.6
2014-Nov-20 01:27N 36°45' E 000°52'2020.1
2014-Nov-20 00:27N 36°41' E 000°28'3820.1
2014-Nov-19 22:32N 36°35' W 000°20'2620.3
2014-Nov-19 21:16N 36°31' W 000°52'3820.4
2014-Nov-19 19:24N 36°26' W 001°38'3619.5
2014-Nov-19 17:32N 36°21' W 002°23'14020.1
2014-Nov-19 10:34N 35°60' W 005°15'21015.8
2014-Nov-18 21:15N 37°30' W 009°13'1419.3
2014-Nov-18 20:32N 37°41' W 009°03'1717.5
2014-Nov-18 19:33N 37°55' W 008°50'1 1.1
2014-Nov-18 18:30N 37°56' W 008°51'0 0.0
2014-Nov-18 17:33N 37°56' W 008°51'0 0.0
2014-Nov-18 16:33N 37°56' W 008°51'0 0.0
2014-Nov-18 15:33N 37°56' W 008°51'0 0.0
2014-Nov-18 14:33N 37°56' W 008°51'0 0.0
2014-Nov-18 13:33N 37°56' W 008°51'0 0.0
2014-Nov-18 12:33N 37°56' W 008°51'0 0.0
2014-Nov-18 11:33N 37°56' W 008°51'0 0.0
2014-Nov-18 10:33N 37°56' W 008°51'0 0.0
2014-Nov-18 09:33N 37°56' W 008°51'0 0.0
2014-Nov-18 08:30N 37°56' W 008°51'0 0.0
2014-Nov-18 07:33N 37°56' W 008°51'0 0.0
2014-Nov-18 06:33N 37°56' W 008°51'1 0.9
2014-Nov-18 05:33N 37°55' W 008°50'6 6.4
2014-Nov-18 04:33N 37°57' W 008°58'1615.9
2014-Nov-18 03:33N 38°06' W 009°14'1817.9
2014-Nov-18 02:32N 38°17' W 009°33'76516.6
2014-Nov-16 04:22N 50°01' W 002°38'10718.2
2014-Nov-15 22:29N 50°29' E 000°04'1718.9
2014-Nov-15 21:33N 50°34' E 000°30'1818.2
2014-Nov-15 20:34N 50°43' E 000°55'1818.4
2014-Nov-15 19:34N 50°55' E 001°18'1817.5
2014-Nov-15 18:33N 51°07' E 001°37'1817.5
2014-Nov-15 17:33N 51°21' E 001°55'1413.7
2014-Nov-15 16:32N 51°20' E 002°17'1716.9
2014-Nov-15 15:31N 51°22' E 002°45'1515.3
2014-Nov-15 14:32N 51°24' E 003°09'1616.6
2014-Nov-15 13:33N 51°25' E 003°35'1212.1
2014-Nov-15 12:33N 51°21' E 003°53'1111.2
2014-Nov-15 11:33N 51°23' E 004°10'5 5.2
2014-Nov-15 10:33N 51°21' E 004°17'2 2.0
2014-Nov-15 09:34N 51°20' E 004°20'0 0.3
2014-Nov-15 08:31N 51°20' E 004°20'0 0.0
2014-Nov-15 07:31N 51°20' E 004°20'0 0.0
2014-Nov-15 06:28N 51°20' E 004°20'0 0.0
2014-Nov-15 05:31N 51°20' E 004°20'0 0.0
2014-Nov-15 04:31N 51°20' E 004°20'0 0.0
2014-Nov-15 03:28N 51°20' E 004°20'0 0.0
2014-Nov-15 02:31N 51°20' E 004°20'0 0.0
2014-Nov-15 01:31N 51°20' E 004°20'0 0.0
2014-Nov-15 00:34N 51°20' E 004°20'0 0.0
2014-Nov-14 23:33N 51°20' E 004°20'0 0.0
2014-Nov-14 22:33N 51°20' E 004°20'0 0.0
2014-Nov-14 21:33N 51°20' E 004°20'0 0.0
2014-Nov-14 20:30N 51°20' E 004°20'0 0.0
2014-Nov-14 19:33N 51°20' E 004°20'0 0.0
2014-Nov-14 18:33N 51°20' E 004°20'0 0.0
2014-Nov-14 17:33N 51°20' E 004°20'0 0.0
2014-Nov-14 16:33N 51°20' E 004°20'0 0.0
2014-Nov-14 15:33N 51°20' E 004°20'0 0.0
2014-Nov-14 14:33N 51°20' E 004°20'0 0.0
2014-Nov-14 12:30N 51°20' E 004°20'2 2.3
2014-Nov-14 11:34N 51°21' E 004°17'0 0.2
2014-Nov-14 10:33N 51°21' E 004°17'4 3.5
2014-Nov-14 09:33N 51°23' E 004°13'9 9.4
2014-Nov-14 08:34N 51°25' E 003°58'1010.0
2014-Nov-14 07:34N 51°25' E 003°42'1212.2
2014-Nov-14 06:33N 51°25' E 003°22'1310.4
2014-Nov-14 05:18N 51°32' E 003°06'1512.0
2014-Nov-14 04:05N 51°47' E 003°04'1018.4
2014-Nov-14 03:33N 51°50' E 002°49'5819.2
2014-Nov-14 00:33N 52°41' E 003°33'2120.9
2014-Nov-13 23:33N 52°56' E 003°56'2020.3
2014-Nov-13 22:33N 53°09' E 004°23'2019.5
2014-Nov-13 21:33N 53°27' E 004°36'2119.1
2014-Nov-13 20:28N 53°35' E 005°08'1920.5
2014-Nov-13 19:33N 53°41' E 005°38'2221.5
2014-Nov-13 18:33N 53°48' E 006°13'4821.2
2014-Nov-13 16:16N 53°59' E 007°33'1216.2
2014-Nov-13 15:31N 53°53' E 007°51'1515.7
2014-Nov-13 14:33N 53°45' E 008°13'1514.9
2014-Nov-13 13:33N 53°35' E 008°32'1 0.7
2014-Nov-13 12:32N 53°35' E 008°32'0 0.0
2014-Nov-13 11:32N 53°35' E 008°32'0 0.0
2014-Nov-13 10:32N 53°35' E 008°32'0 0.0
2014-Nov-13 09:32N 53°35' E 008°32'0 0.0
2014-Nov-13 08:32N 53°35' E 008°32'0 0.0
2014-Nov-13 07:32N 53°35' E 008°32'0 0.0
2014-Nov-13 06:32N 53°35' E 008°32'  
Track history (hours):
 
Tides and Currents Weather Stations Pressure Air Temp Water Temp Dewpoint Dewpoint Depression Visibility Wind Speed Wind Dir Waves Ship Positions

Sct Santiago

Last reported at 2014-Nov-23 06:27 UTC. Time now 2014-Nov-24 15:21 UTC.
Position N 40°53' E 028°40'.

Length 294 m; draft 10.9 m.

Type: Cargo ship. MMSI: 538002953.

Date/timePositionNaut miles runAvg speedWind from/ knotsBaromVisibWave heightAir tempDewpointWater temp
2014-Nov-23 06:27N 40°53' E 028°40'15213.7
2014-Nov-22 19:19N 39°40' E 025°45'12119.7
2014-Nov-22 13:09N 37°52' E 024°35'1219.9
2014-Nov-22 12:33N 37°40' E 024°30'1919.6
2014-Nov-22 11:33N 37°25' E 024°15'2019.8
2014-Nov-22 10:33N 37°10' E 023°59'2619.9
2014-Nov-22 09:14N 36°50' E 023°37'1419.8
2014-Nov-22 08:31N 36°39' E 023°27'43719.6
2014-Nov-21 10:13N 36°32' E 014°22'1420.1
2014-Nov-21 09:32N 36°35' E 014°06'2020.2
2014-Nov-21 08:34N 36°40' E 013°42'2020.3
2014-Nov-21 07:34N 36°45' E 013°18'4020.0
2014-Nov-21 05:33N 36°54' E 012°29'19919.3
2014-Nov-20 19:13N 37°17' E 008°21'2219.9
2014-Nov-20 18:08N 37°17' E 007°53'1219.5
2014-Nov-20 17:31N 37°16' E 007°38'6119.4
2014-Nov-20 14:21N 37°17' E 006°21'6620.2
2014-Nov-20 11:05N 37°11' E 004°58'1519.9
2014-Nov-20 10:19N 37°10' E 004°39'2120.2
2014-Nov-20 09:16N 37°09' E 004°13'14820.7
2014-Nov-20 02:08N 36°47' E 001°10'1420.6
2014-Nov-20 01:27N 36°45' E 000°52'2020.1
2014-Nov-20 00:27N 36°41' E 000°28'3820.1
2014-Nov-19 22:32N 36°35' W 000°20'2620.3
2014-Nov-19 21:16N 36°31' W 000°52'3820.4
2014-Nov-19 19:24N 36°26' W 001°38'3619.5
2014-Nov-19 17:32N 36°21' W 002°23'14020.1
2014-Nov-19 10:34N 35°60' W 005°15'21015.8
2014-Nov-18 21:15N 37°30' W 009°13'1419.3
2014-Nov-18 20:32N 37°41' W 009°03'1717.5
2014-Nov-18 19:33N 37°55' W 008°50'1 1.1
2014-Nov-18 18:30N 37°56' W 008°51'0 0.0
2014-Nov-18 17:33N 37°56' W 008°51'0 0.0
2014-Nov-18 16:33N 37°56' W 008°51'0 0.0
2014-Nov-18 15:33N 37°56' W 008°51'0 0.0
2014-Nov-18 14:33N 37°56' W 008°51'0 0.0
2014-Nov-18 13:33N 37°56' W 008°51'0 0.0
2014-Nov-18 12:33N 37°56' W 008°51'0 0.0
2014-Nov-18 11:33N 37°56' W 008°51'0 0.0
2014-Nov-18 10:33N 37°56' W 008°51'0 0.0
2014-Nov-18 09:33N 37°56' W 008°51'0 0.0
2014-Nov-18 08:30N 37°56' W 008°51'0 0.0
2014-Nov-18 07:33N 37°56' W 008°51'0 0.0
2014-Nov-18 06:33N 37°56' W 008°51'1 0.9
2014-Nov-18 05:33N 37°55' W 008°50'6 6.4
2014-Nov-18 04:33N 37°57' W 008°58'1615.9
2014-Nov-18 03:33N 38°06' W 009°14'1817.9
2014-Nov-18 02:32N 38°17' W 009°33'76516.6
2014-Nov-16 04:22N 50°01' W 002°38'10718.2
2014-Nov-15 22:29N 50°29' E 000°04'1718.9
2014-Nov-15 21:33N 50°34' E 000°30'1818.2
2014-Nov-15 20:34N 50°43' E 000°55'1818.4
2014-Nov-15 19:34N 50°55' E 001°18'1817.5
2014-Nov-15 18:33N 51°07' E 001°37'1817.5
2014-Nov-15 17:33N 51°21' E 001°55'1413.7
2014-Nov-15 16:32N 51°20' E 002°17'1716.9
2014-Nov-15 15:31N 51°22' E 002°45'1515.3
2014-Nov-15 14:32N 51°24' E 003°09'1616.6
2014-Nov-15 13:33N 51°25' E 003°35'1212.1
2014-Nov-15 12:33N 51°21' E 003°53'1111.2
2014-Nov-15 11:33N 51°23' E 004°10'5 5.2
2014-Nov-15 10:33N 51°21' E 004°17'2 2.0
2014-Nov-15 09:34N 51°20' E 004°20'0 0.3
2014-Nov-15 08:31N 51°20' E 004°20'0 0.0
2014-Nov-15 07:31N 51°20' E 004°20'0 0.0
2014-Nov-15 06:28N 51°20' E 004°20'0 0.0
2014-Nov-15 05:31N 51°20' E 004°20'0 0.0
2014-Nov-15 04:31N 51°20' E 004°20'0 0.0
2014-Nov-15 03:28N 51°20' E 004°20'0 0.0
2014-Nov-15 02:31N 51°20' E 004°20'0 0.0
2014-Nov-15 01:31N 51°20' E 004°20'0 0.0
2014-Nov-15 00:34N 51°20' E 004°20'0 0.0
2014-Nov-14 23:33N 51°20' E 004°20'0 0.0
2014-Nov-14 22:33N 51°20' E 004°20'0 0.0
2014-Nov-14 21:33N 51°20' E 004°20'0 0.0
2014-Nov-14 20:30N 51°20' E 004°20'0 0.0
2014-Nov-14 19:33N 51°20' E 004°20'0 0.0
2014-Nov-14 18:33N 51°20' E 004°20'0 0.0
2014-Nov-14 17:33N 51°20' E 004°20'0 0.0
2014-Nov-14 16:33N 51°20' E 004°20'0 0.0
2014-Nov-14 15:33N 51°20' E 004°20'0 0.0
2014-Nov-14 14:33N 51°20' E 004°20'0 0.0
2014-Nov-14 12:30N 51°20' E 004°20'2 2.3
2014-Nov-14 11:34N 51°21' E 004°17'0 0.2
2014-Nov-14 10:33N 51°21' E 004°17'4 3.5
2014-Nov-14 09:33N 51°23' E 004°13'9 9.4
2014-Nov-14 08:34N 51°25' E 003°58'1010.0
2014-Nov-14 07:34N 51°25' E 003°42'1212.2
2014-Nov-14 06:33N 51°25' E 003°22'1310.4
2014-Nov-14 05:18N 51°32' E 003°06'1512.0
2014-Nov-14 04:05N 51°47' E 003°04'1018.4
2014-Nov-14 03:33N 51°50' E 002°49'5819.2
2014-Nov-14 00:33N 52°41' E 003°33'2120.9
2014-Nov-13 23:33N 52°56' E 003°56'2020.3
2014-Nov-13 22:33N 53°09' E 004°23'2019.5
2014-Nov-13 21:33N 53°27' E 004°36'2119.1
2014-Nov-13 20:28N 53°35' E 005°08'1920.5
2014-Nov-13 19:33N 53°41' E 005°38'2221.5
2014-Nov-13 18:33N 53°48' E 006°13'4821.2
2014-Nov-13 16:16N 53°59' E 007°33'1216.2
2014-Nov-13 15:31N 53°53' E 007°51'1515.7
2014-Nov-13 14:33N 53°45' E 008°13'1514.9
2014-Nov-13 13:33N 53°35' E 008°32'1 0.7
2014-Nov-13 12:32N 53°35' E 008°32'0 0.0
2014-Nov-13 11:32N 53°35' E 008°32'0 0.0
2014-Nov-13 10:32N 53°35' E 008°32'0 0.0
2014-Nov-13 09:32N 53°35' E 008°32'0 0.0
2014-Nov-13 08:32N 53°35' E 008°32'0 0.0
2014-Nov-13 07:32N 53°35' E 008°32'0 0.0
2014-Nov-13 06:32N 53°35' E 008°32'  

Dump ship's entire track history